sensor_id;sensor_type;location;lat;lon;timestamp;pressure;altitude;pressure_sealevel;temperature;humidity
67373;BME280;54257;54.496;18.412;2022-07-21T00:00:33;100166.73;;;18.71;65.37
67373;BME280;54257;54.496;18.412;2022-07-21T00:03:07;100174.50;;;18.71;65.33
67373;BME280;54257;54.496;18.412;2022-07-21T00:05:34;100177.98;;;18.71;65.22
67373;BME280;54257;54.496;18.412;2022-07-21T00:08:01;100176.26;;;18.71;65.29
67373;BME280;54257;54.496;18.412;2022-07-21T00:10:28;100175.38;;;18.71;65.62
67373;BME280;54257;54.496;18.412;2022-07-21T00:12:56;100178.00;;;18.70;65.87
67373;BME280;54257;54.496;18.412;2022-07-21T00:15:25;100173.50;;;18.70;65.80
67373;BME280;54257;54.496;18.412;2022-07-21T00:17:53;100170.54;;;18.71;65.49
67373;BME280;54257;54.496;18.412;2022-07-21T00:20:21;100173.29;;;18.72;65.54
67373;BME280;54257;54.496;18.412;2022-07-21T00:22:48;100172.41;;;18.73;65.54
67373;BME280;54257;54.496;18.412;2022-07-21T00:25:17;100170.34;;;18.72;66.08
67373;BME280;54257;54.496;18.412;2022-07-21T00:27:44;100165.52;;;18.71;65.79
67373;BME280;54257;54.496;18.412;2022-07-21T00:30:12;100165.19;;;18.70;65.99
67373;BME280;54257;54.496;18.412;2022-07-21T00:32:40;100165.55;;;18.69;65.65
67373;BME280;54257;54.496;18.412;2022-07-21T00:35:09;100161.42;;;18.67;65.83
67373;BME280;54257;54.496;18.412;2022-07-21T00:37:37;100167.15;;;18.67;65.90
67373;BME280;54257;54.496;18.412;2022-07-21T00:40:10;100169.06;;;18.66;65.87
67373;BME280;54257;54.496;18.412;2022-07-21T00:42:37;100165.77;;;18.65;66.01
67373;BME280;54257;54.496;18.412;2022-07-21T00:45:06;100163.55;;;18.61;66.28
67373;BME280;54257;54.496;18.412;2022-07-21T00:47:34;100169.66;;;18.58;66.57
67373;BME280;54257;54.496;18.412;2022-07-21T00:50:09;100176.94;;;18.56;66.87
67373;BME280;54257;54.496;18.412;2022-07-21T00:52:37;100177.69;;;18.51;67.06
67373;BME280;54257;54.496;18.412;2022-07-21T00:55:13;100182.38;;;18.50;67.39
67373;BME280;54257;54.496;18.412;2022-07-21T00:57:42;100182.91;;;18.48;67.54
67373;BME280;54257;54.496;18.412;2022-07-21T01:00:23;100185.17;;;18.47;68.09
67373;BME280;54257;54.496;18.412;2022-07-21T01:02:51;100183.66;;;18.43;69.36
67373;BME280;54257;54.496;18.412;2022-07-21T01:05:18;100184.39;;;18.40;69.57
67373;BME280;54257;54.496;18.412;2022-07-21T01:07:48;100179.41;;;18.37;69.93
67373;BME280;54257;54.496;18.412;2022-07-21T01:10:21;100178.23;;;18.35;69.74
67373;BME280;54257;54.496;18.412;2022-07-21T01:12:49;100173.59;;;18.33;69.86
67373;BME280;54257;54.496;18.412;2022-07-21T01:15:17;100170.30;;;18.32;69.73
67373;BME280;54257;54.496;18.412;2022-07-21T01:17:45;100161.66;;;18.33;69.91
67373;BME280;54257;54.496;18.412;2022-07-21T01:20:17;100157.14;;;18.35;69.96
67373;BME280;54257;54.496;18.412;2022-07-21T01:22:48;100149.66;;;18.37;70.02
67373;BME280;54257;54.496;18.412;2022-07-21T01:25:19;100146.86;;;18.39;70.22
67373;BME280;54257;54.496;18.412;2022-07-21T01:27:47;100148.23;;;18.41;70.45
67373;BME280;54257;54.496;18.412;2022-07-21T01:30:15;100151.00;;;18.41;70.54
67373;BME280;54257;54.496;18.412;2022-07-21T01:32:46;100150.31;;;18.41;70.36
67373;BME280;54257;54.496;18.412;2022-07-21T01:35:16;100149.61;;;18.42;70.09
67373;BME280;54257;54.496;18.412;2022-07-21T01:37:45;100148.91;;;18.42;69.95
67373;BME280;54257;54.496;18.412;2022-07-21T01:40:14;100152.55;;;18.41;70.36
67373;BME280;54257;54.496;18.412;2022-07-21T01:43:00;100152.21;;;18.40;70.77
67373;BME280;54257;54.496;18.412;2022-07-21T01:45:28;100158.45;;;18.38;71.53
67373;BME280;54257;54.496;18.412;2022-07-21T01:47:56;100159.17;;;18.37;71.70
67373;BME280;54257;54.496;18.412;2022-07-21T01:50:25;100159.37;;;18.36;71.89
67373;BME280;54257;54.496;18.412;2022-07-21T01:52:57;100160.07;;;18.35;72.12
67373;BME280;54257;54.496;18.412;2022-07-21T01:55:25;100160.76;;;18.36;72.28
67373;BME280;54257;54.496;18.412;2022-07-21T01:57:52;100162.45;;;18.37;72.15
67373;BME280;54257;54.496;18.412;2022-07-21T02:00:20;100163.81;;;18.39;71.98
67373;BME280;54257;54.496;18.412;2022-07-21T02:02:47;100161.39;;;18.41;71.80
67373;BME280;54257;54.496;18.412;2022-07-21T02:05:21;100159.98;;;18.42;71.78
67373;BME280;54257;54.496;18.412;2022-07-21T02:07:48;100158.42;;;18.43;71.93
67373;BME280;54257;54.496;18.412;2022-07-21T02:10:18;100160.31;;;18.43;71.77
67373;BME280;54257;54.496;18.412;2022-07-21T02:12:48;100159.09;;;18.44;71.74
67373;BME280;54257;54.496;18.412;2022-07-21T02:15:15;100163.26;;;18.43;71.70
67373;BME280;54257;54.496;18.412;2022-07-21T02:17:42;100160.32;;;18.43;71.91
67373;BME280;54257;54.496;18.412;2022-07-21T02:20:10;100164.48;;;18.43;72.09
67373;BME280;54257;54.496;18.412;2022-07-21T02:22:37;100166.05;;;18.42;72.18
67373;BME280;54257;54.496;18.412;2022-07-21T02:25:05;100162.94;;;18.41;72.21
67373;BME280;54257;54.496;18.412;2022-07-21T02:27:32;100160.86;;;18.41;72.32
67373;BME280;54257;54.496;18.412;2022-07-21T02:29:59;100159.48;;;18.41;71.95
67373;BME280;54257;54.496;18.412;2022-07-21T02:32:26;100157.76;;;18.41;71.96
67373;BME280;54257;54.496;18.412;2022-07-21T02:34:56;100155.16;;;18.41;71.93
67373;BME280;54257;54.496;18.412;2022-07-21T02:37:28;100152.90;;;18.40;71.88
67373;BME280;54257;54.496;18.412;2022-07-21T02:39:55;100151.35;;;18.39;71.92
67373;BME280;54257;54.496;18.412;2022-07-21T02:42:22;100144.95;;;18.39;71.75
67373;BME280;54257;54.496;18.412;2022-07-21T02:44:49;100149.11;;;18.40;71.69
67373;BME280;54257;54.496;18.412;2022-07-21T02:47:16;100147.38;;;18.39;71.47
67373;BME280;54257;54.496;18.412;2022-07-21T02:49:44;100148.09;;;18.38;71.51
67373;BME280;54257;54.496;18.412;2022-07-21T02:52:11;100147.23;;;18.38;71.81
67373;BME280;54257;54.496;18.412;2022-07-21T02:54:38;100148.94;;;18.39;71.62
67373;BME280;54257;54.496;18.412;2022-07-21T02:57:05;100146.34;;;18.39;71.99
67373;BME280;54257;54.496;18.412;2022-07-21T02:59:33;100145.11;;;18.40;72.02
67373;BME280;54257;54.496;18.412;2022-07-21T03:01:59;100143.05;;;18.41;71.80
67373;BME280;54257;54.496;18.412;2022-07-21T03:04:26;100143.73;;;18.42;71.82
67373;BME280;54257;54.496;18.412;2022-07-21T03:06:56;100145.41;;;18.44;71.86
67373;BME280;54257;54.496;18.412;2022-07-21T03:09:24;100145.58;;;18.45;71.74
67373;BME280;54257;54.496;18.412;2022-07-21T03:11:51;100144.85;;;18.48;71.70
67373;BME280;54257;54.496;18.412;2022-07-21T03:14:18;100144.64;;;18.52;71.60
67373;BME280;54257;54.496;18.412;2022-07-21T03:16:45;100141.46;;;18.56;71.65
67373;BME280;54257;54.496;18.412;2022-07-21T03:19:12;100141.23;;;18.61;71.50
67373;BME280;54257;54.496;18.412;2022-07-21T03:21:39;100145.00;;;18.66;71.51
67373;BME280;54257;54.496;18.412;2022-07-21T03:24:06;100140.79;;;18.70;71.42
67373;BME280;54257;54.496;18.412;2022-07-21T03:26:33;100133.83;;;18.73;71.32
67373;BME280;54257;54.496;18.412;2022-07-21T03:29:05;100133.72;;;18.80;71.35
67373;BME280;54257;54.496;18.412;2022-07-21T03:31:33;100127.91;;;18.88;71.22
67373;BME280;54257;54.496;18.412;2022-07-21T03:34:00;100131.06;;;18.96;71.10
67373;BME280;54257;54.496;18.412;2022-07-21T03:36:27;100126.95;;;19.05;70.90
67373;BME280;54257;54.496;18.412;2022-07-21T03:38:54;100126.98;;;19.14;71.00
67373;BME280;54257;54.496;18.412;2022-07-21T03:41:23;100132.10;;;19.19;70.87
67373;BME280;54257;54.496;18.412;2022-07-21T03:43:50;100133.19;;;19.26;70.77
67373;BME280;54257;54.496;18.412;2022-07-21T03:46:17;100131.38;;;19.32;70.65
67373;BME280;54257;54.496;18.412;2022-07-21T03:48:44;100134.02;;;19.29;70.32
67373;BME280;54257;54.496;18.412;2022-07-21T03:51:11;100139.14;;;19.23;70.51
67373;BME280;54257;54.496;18.412;2022-07-21T03:53:38;100141.80;;;19.19;70.41
67373;BME280;54257;54.496;18.412;2022-07-21T03:56:08;100145.42;;;19.19;70.53
67373;BME280;54257;54.496;18.412;2022-07-21T03:58:35;100146.42;;;19.22;70.40
67373;BME280;54257;54.496;18.412;2022-07-21T04:01:06;100144.83;;;19.25;70.54
67373;BME280;54257;54.496;18.412;2022-07-21T04:03:33;100143.55;;;19.29;70.47
67373;BME280;54257;54.496;18.412;2022-07-21T04:06:01;100142.45;;;19.33;70.43
67373;BME280;54257;54.496;18.412;2022-07-21T04:08:29;100141.52;;;19.36;70.36
67373;BME280;54257;54.496;18.412;2022-07-21T04:10:56;100142.89;;;19.37;70.47
67373;BME280;54257;54.496;18.412;2022-07-21T04:13:25;100137.84;;;19.39;70.63
67373;BME280;54257;54.496;18.412;2022-07-21T04:15:52;100140.23;;;19.41;70.89
67373;BME280;54257;54.496;18.412;2022-07-21T04:18:19;100137.98;;;19.41;70.80
67373;BME280;54257;54.496;18.412;2022-07-21T04:20:46;100135.38;;;19.42;70.86
67373;BME280;54257;54.496;18.412;2022-07-21T04:23:13;100133.62;;;19.42;70.87
67373;BME280;54257;54.496;18.412;2022-07-21T04:25:43;100134.98;;;19.44;70.99
67373;BME280;54257;54.496;18.412;2022-07-21T04:28:13;100134.77;;;19.46;71.09
67373;BME280;54257;54.496;18.412;2022-07-21T04:30:40;100134.40;;;19.48;70.91
67373;BME280;54257;54.496;18.412;2022-07-21T04:33:07;100132.10;;;19.50;70.99
67373;BME280;54257;54.496;18.412;2022-07-21T04:35:34;100132.22;;;19.53;71.15
67373;BME280;54257;54.496;18.412;2022-07-21T04:38:02;100132.37;;;19.56;71.17
67373;BME280;54257;54.496;18.412;2022-07-21T04:40:29;100134.36;;;19.61;71.05
67373;BME280;54257;54.496;18.412;2022-07-21T04:42:56;100131.88;;;19.65;71.01
67373;BME280;54257;54.496;18.412;2022-07-21T04:45:24;100135.25;;;19.70;71.03
67373;BME280;54257;54.496;18.412;2022-07-21T04:47:53;100133.94;;;19.76;70.84
67373;BME280;54257;54.496;18.412;2022-07-21T04:50:26;100135.73;;;19.82;70.73
67373;BME280;54257;54.496;18.412;2022-07-21T04:52:54;100134.08;;;19.87;70.71
67373;BME280;54257;54.496;18.412;2022-07-21T04:55:22;100132.20;;;19.95;70.59
67373;BME280;54257;54.496;18.412;2022-07-21T04:57:52;100130.33;;;20.01;70.20
67373;BME280;54257;54.496;18.412;2022-07-21T05:00:23;100126.40;;;20.07;69.98
67373;BME280;54257;54.496;18.412;2022-07-21T05:02:52;100130.91;;;20.16;69.87
67373;BME280;54257;54.496;18.412;2022-07-21T05:05:20;100129.89;;;20.24;69.57
67373;BME280;54257;54.496;18.412;2022-07-21T05:07:50;100133.88;;;20.32;69.11
67373;BME280;54257;54.496;18.412;2022-07-21T05:10:17;100133.17;;;20.41;68.57
67373;BME280;54257;54.496;18.412;2022-07-21T05:12:50;100131.64;;;20.50;68.32
67373;BME280;54257;54.496;18.412;2022-07-21T05:15:21;100127.45;;;20.59;68.05
67373;BME280;54257;54.496;18.412;2022-07-21T05:17:51;100123.95;;;20.68;67.58
67373;BME280;54257;54.496;18.412;2022-07-21T05:20:19;100123.02;;;20.78;67.77
67373;BME280;54257;54.496;18.412;2022-07-21T05:22:46;100125.25;;;20.87;67.46
67373;BME280;54257;54.496;18.412;2022-07-21T05:25:13;100122.20;;;20.99;66.85
67373;BME280;54257;54.496;18.412;2022-07-21T05:27:40;100122.95;;;21.11;65.70
67373;BME280;54257;54.496;18.412;2022-07-21T05:30:08;100122.32;;;21.23;65.64
67373;BME280;54257;54.496;18.412;2022-07-21T05:32:35;100119.77;;;21.36;64.77
67373;BME280;54257;54.496;18.412;2022-07-21T05:35:03;100122.02;;;21.49;64.50
67373;BME280;54257;54.496;18.412;2022-07-21T05:37:35;100125.65;;;21.64;63.69
67373;BME280;54257;54.496;18.412;2022-07-21T05:40:02;100123.52;;;21.79;62.96
67373;BME280;54257;54.496;18.412;2022-07-21T05:42:30;100123.23;;;21.96;62.81
67373;BME280;54257;54.496;18.412;2022-07-21T05:44:57;100122.96;;;22.12;61.90
67373;BME280;54257;54.496;18.412;2022-07-21T05:47:25;100115.97;;;22.32;60.97
67373;BME280;54257;54.496;18.412;2022-07-21T05:49:54;100115.02;;;22.47;60.54
67373;BME280;54257;54.496;18.412;2022-07-21T05:52:21;100112.31;;;22.66;60.64
67373;BME280;54257;54.496;18.412;2022-07-21T05:54:49;100107.88;;;22.87;59.39
67373;BME280;54257;54.496;18.412;2022-07-21T05:57:16;100107.80;;;23.06;58.69
67373;BME280;54257;54.496;18.412;2022-07-21T05:59:45;100100.02;;;23.26;57.78
67373;BME280;54257;54.496;18.412;2022-07-21T06:02:12;100100.62;;;23.44;57.27
67373;BME280;54257;54.496;18.412;2022-07-21T06:04:39;100100.55;;;23.62;56.44
67373;BME280;54257;54.496;18.412;2022-07-21T06:07:06;100100.70;;;23.78;55.76
67373;BME280;54257;54.496;18.412;2022-07-21T06:09:34;100100.91;;;23.95;55.65
67373;BME280;54257;54.496;18.412;2022-07-21T06:12:01;100097.52;;;24.12;54.72
67373;BME280;54257;54.496;18.412;2022-07-21T06:14:28;100094.02;;;24.26;53.77
67373;BME280;54257;54.496;18.412;2022-07-21T06:16:56;100093.80;;;24.38;53.02
67373;BME280;54257;54.496;18.412;2022-07-21T06:19:23;100089.61;;;24.51;52.56
67373;BME280;54257;54.496;18.412;2022-07-21T06:21:50;100085.95;;;24.65;51.80
67373;BME280;54257;54.496;18.412;2022-07-21T06:24:17;100086.03;;;24.76;51.31
67373;BME280;54257;54.496;18.412;2022-07-21T06:26:46;100087.20;;;24.90;51.40
67373;BME280;54257;54.496;18.412;2022-07-21T06:29:13;100089.21;;;25.10;51.24
67373;BME280;54257;54.496;18.412;2022-07-21T06:31:40;100085.36;;;25.27;50.33
67373;BME280;54257;54.496;18.412;2022-07-21T06:34:07;100079.50;;;25.41;49.67
67373;BME280;54257;54.496;18.412;2022-07-21T06:36:35;100080.09;;;25.52;48.67
67373;BME280;54257;54.496;18.412;2022-07-21T06:39:02;100079.41;;;25.60;48.88
67373;BME280;54257;54.496;18.412;2022-07-21T06:41:29;100082.63;;;25.70;48.26
67373;BME280;54257;54.496;18.412;2022-07-21T06:43:56;100082.23;;;25.84;48.29
67373;BME280;54257;54.496;18.412;2022-07-21T06:46:23;100083.09;;;26.00;48.18
67373;BME280;54257;54.496;18.412;2022-07-21T06:48:50;100082.50;;;26.16;47.28
67373;BME280;54257;54.496;18.412;2022-07-21T06:51:17;100080.92;;;26.32;46.53
67373;BME280;54257;54.496;18.412;2022-07-21T06:53:44;100078.36;;;26.42;47.03
67373;BME280;54257;54.496;18.412;2022-07-21T06:56:11;100076.73;;;26.58;46.66
67373;BME280;54257;54.496;18.412;2022-07-21T06:58:38;100075.42;;;26.74;46.61
67373;BME280;54257;54.496;18.412;2022-07-21T07:01:08;100074.38;;;26.92;46.27
67373;BME280;54257;54.496;18.412;2022-07-21T07:03:38;100071.38;;;27.11;45.86
67373;BME280;54257;54.496;18.412;2022-07-21T07:06:06;100069.36;;;27.30;45.75
67373;BME280;54257;54.496;18.412;2022-07-21T07:08:33;100067.02;;;27.49;45.40
67373;BME280;54257;54.496;18.412;2022-07-21T07:11:00;100067.48;;;27.70;45.66
67373;BME280;54257;54.496;18.412;2022-07-21T07:13:27;100066.41;;;27.94;45.13
67373;BME280;54257;54.496;18.412;2022-07-21T07:15:54;100063.66;;;28.12;43.61
67373;BME280;54257;54.496;18.412;2022-07-21T07:18:22;100060.76;;;28.20;42.78
67373;BME280;54257;54.496;18.412;2022-07-21T07:20:51;100062.54;;;28.30;43.31
67373;BME280;54257;54.496;18.412;2022-07-21T07:23:18;100062.52;;;28.46;43.52
67373;BME280;54257;54.496;18.412;2022-07-21T07:25:46;100056.61;;;28.73;43.28
67373;BME280;54257;54.496;18.412;2022-07-21T07:28:13;100059.88;;;28.96;42.22
67373;BME280;54257;54.496;18.412;2022-07-21T07:30:40;100063.86;;;29.12;41.55
67373;BME280;54257;54.496;18.412;2022-07-21T07:33:07;100073.09;;;29.20;40.49
67373;BME280;54257;54.496;18.412;2022-07-21T07:35:34;100079.19;;;29.30;40.78
67373;BME280;54257;54.496;18.412;2022-07-21T07:38:01;100077.81;;;29.35;40.17
67373;BME280;54257;54.496;18.412;2022-07-21T07:40:28;100080.08;;;29.44;40.64
67373;BME280;54257;54.496;18.412;2022-07-21T07:42:57;100081.84;;;29.59;40.80
67373;BME280;54257;54.496;18.412;2022-07-21T07:45:24;100078.47;;;29.74;40.19
67373;BME280;54257;54.496;18.412;2022-07-21T07:47:52;100082.23;;;29.79;40.04
67373;BME280;54257;54.496;18.412;2022-07-21T07:50:19;100079.54;;;29.89;40.14
67373;BME280;54257;54.496;18.412;2022-07-21T07:52:46;100074.02;;;29.98;39.40
67373;BME280;54257;54.496;18.412;2022-07-21T07:55:13;100072.55;;;30.11;39.43
67373;BME280;54257;54.496;18.412;2022-07-21T07:57:41;100072.34;;;30.31;39.45
67373;BME280;54257;54.496;18.412;2022-07-21T08:00:14;100077.33;;;30.46;38.98
67373;BME280;54257;54.496;18.412;2022-07-21T08:02:42;100079.00;;;30.62;38.40
67373;BME280;54257;54.496;18.412;2022-07-21T08:05:09;100081.27;;;30.64;38.05
67373;BME280;54257;54.496;18.412;2022-07-21T08:07:38;100083.30;;;30.77;38.14
67373;BME280;54257;54.496;18.412;2022-07-21T08:10:07;100080.02;;;30.94;38.01
67373;BME280;54257;54.496;18.412;2022-07-21T08:12:35;100081.55;;;31.09;36.88
67373;BME280;54257;54.496;18.412;2022-07-21T08:15:02;100080.89;;;31.19;37.09
67373;BME280;54257;54.496;18.412;2022-07-21T08:17:30;100076.27;;;31.35;37.55
67373;BME280;54257;54.496;18.412;2022-07-21T08:19:58;100080.89;;;31.50;36.66
67373;BME280;54257;54.496;18.412;2022-07-21T08:22:25;100075.55;;;31.48;36.05
67373;BME280;54257;54.496;18.412;2022-07-21T08:24:52;100072.29;;;31.55;36.65
67373;BME280;54257;54.496;18.412;2022-07-21T08:27:19;100075.60;;;31.73;36.17
67373;BME280;54257;54.496;18.412;2022-07-21T08:29:46;100075.70;;;31.87;36.09
67373;BME280;54257;54.496;18.412;2022-07-21T08:32:13;100080.56;;;32.06;35.77
67373;BME280;54257;54.496;18.412;2022-07-21T08:34:40;100081.67;;;32.20;35.13
67373;BME280;54257;54.496;18.412;2022-07-21T08:37:07;100078.77;;;32.29;35.31
67373;BME280;54257;54.496;18.412;2022-07-21T08:39:34;100074.42;;;32.35;34.76
67373;BME280;54257;54.496;18.412;2022-07-21T08:42:01;100070.22;;;32.40;34.65
67373;BME280;54257;54.496;18.412;2022-07-21T08:44:28;100063.63;;;32.40;34.59
67373;BME280;54257;54.496;18.412;2022-07-21T08:46:56;100062.23;;;32.55;35.10
67373;BME280;54257;54.496;18.412;2022-07-21T08:49:24;100056.59;;;32.76;33.87
67373;BME280;54257;54.496;18.412;2022-07-21T08:51:52;100048.48;;;32.78;33.91
67373;BME280;54257;54.496;18.412;2022-07-21T08:54:22;100047.53;;;32.88;32.88
67373;BME280;54257;54.496;18.412;2022-07-21T08:56:49;100043.10;;;33.03;33.12
67373;BME280;54257;54.496;18.412;2022-07-21T08:59:17;100047.27;;;33.27;32.08
67373;BME280;54257;54.496;18.412;2022-07-21T09:01:44;100041.23;;;33.46;32.30
67373;BME280;54257;54.496;18.412;2022-07-21T09:04:25;100046.23;;;33.70;32.61
67373;BME280;54257;54.496;18.412;2022-07-21T09:07:01;100047.38;;;33.92;32.04
67373;BME280;54257;54.496;18.412;2022-07-21T09:09:30;100045.02;;;34.10;31.62
67373;BME280;54257;54.496;18.412;2022-07-21T09:11:59;100044.61;;;34.29;31.36
67373;BME280;54257;54.496;18.412;2022-07-21T09:14:31;100042.64;;;34.42;30.11
67373;BME280;54257;54.496;18.412;2022-07-21T09:17:03;100042.45;;;34.49;30.66
67373;BME280;54257;54.496;18.412;2022-07-21T09:19:36;100039.70;;;34.63;30.43
67373;BME280;54257;54.496;18.412;2022-07-21T09:22:12;100037.77;;;34.75;29.48
67373;BME280;54257;54.496;18.412;2022-07-21T09:24:39;100028.06;;;34.83;28.90
67373;BME280;54257;54.496;18.412;2022-07-21T09:27:15;100021.11;;;34.88;28.23
67373;BME280;54257;54.496;18.412;2022-07-21T09:29:55;100019.74;;;34.81;28.38
67373;BME280;54257;54.496;18.412;2022-07-21T09:32:31;100014.03;;;34.92;29.50
67373;BME280;54257;54.496;18.412;2022-07-21T09:35:16;100018.23;;;35.18;28.84
67373;BME280;54257;54.496;18.412;2022-07-21T09:37:43;100022.17;;;35.22;27.85
67373;BME280;54257;54.496;18.412;2022-07-21T09:40:14;100015.63;;;35.21;28.35
67373;BME280;54257;54.496;18.412;2022-07-21T09:42:44;100017.10;;;35.40;28.23
67373;BME280;54257;54.496;18.412;2022-07-21T09:45:15;100017.70;;;35.41;27.93
67373;BME280;54257;54.496;18.412;2022-07-21T09:47:44;100016.17;;;35.40;28.05
67373;BME280;54257;54.496;18.412;2022-07-21T09:50:14;100014.36;;;35.34;27.66
67373;BME280;54257;54.496;18.412;2022-07-21T09:52:44;100008.98;;;35.26;28.05
67373;BME280;54257;54.496;18.412;2022-07-21T09:55:14;100008.83;;;35.41;28.20
67373;BME280;54257;54.496;18.412;2022-07-21T09:57:42;100012.85;;;35.52;26.86
67373;BME280;54257;54.496;18.412;2022-07-21T10:00:14;100011.63;;;35.53;27.02
67373;BME280;54257;54.496;18.412;2022-07-21T10:02:43;100013.13;;;35.59;26.65
67373;BME280;54257;54.496;18.412;2022-07-21T10:05:17;100010.00;;;35.60;26.25
67373;BME280;54257;54.496;18.412;2022-07-21T10:07:46;100008.19;;;35.58;26.34
67373;BME280;54257;54.496;18.412;2022-07-21T10:10:16;100005.78;;;35.65;26.96
67373;BME280;54257;54.496;18.412;2022-07-21T10:12:45;100006.89;;;35.77;27.28
67373;BME280;54257;54.496;18.412;2022-07-21T10:15:12;100006.98;;;35.92;27.49
67373;BME280;54257;54.496;18.412;2022-07-21T10:17:39;100001.85;;;36.02;26.47
67373;BME280;54257;54.496;18.412;2022-07-21T10:20:29;99998.92;;;35.95;27.16
67373;BME280;54257;54.496;18.412;2022-07-21T10:25:44;99992.60;;;36.20;26.49
67373;BME280;54257;54.496;18.412;2022-07-21T10:28:14;99984.25;;;36.18;25.77
67373;BME280;54257;54.496;18.412;2022-07-21T10:30:44;99986.05;;;35.98;26.02
67373;BME280;54257;54.496;18.412;2022-07-21T10:33:14;99989.75;;;36.02;26.60
67373;BME280;54257;54.496;18.412;2022-07-21T10:35:43;99994.30;;;35.99;26.31
67373;BME280;54257;54.496;18.412;2022-07-21T10:38:30;99987.28;;;36.02;26.52
67373;BME280;54257;54.496;18.412;2022-07-21T10:40:59;99984.81;;;36.10;26.33
67373;BME280;54257;54.496;18.412;2022-07-21T10:45:54;99982.23;;;36.36;26.51
67373;BME280;54257;54.496;18.412;2022-07-21T10:51:07;99974.95;;;36.34;26.21
67373;BME280;54257;54.496;18.412;2022-07-21T10:53:35;99978.14;;;36.26;25.95
67373;BME280;54257;54.496;18.412;2022-07-21T10:56:03;99974.54;;;36.19;26.01
67373;BME280;54257;54.496;18.412;2022-07-21T10:58:31;99974.02;;;36.35;26.26
67373;BME280;54257;54.496;18.412;2022-07-21T11:01:00;99970.79;;;36.51;26.01
67373;BME280;54257;54.496;18.412;2022-07-21T11:03:30;99970.16;;;36.65;24.92
67373;BME280;54257;54.496;18.412;2022-07-21T11:08:51;99970.82;;;36.75;24.52
67373;BME280;54257;54.496;18.412;2022-07-21T11:11:26;99970.82;;;36.37;25.01
67373;BME280;54257;54.496;18.412;2022-07-21T11:14:13;99966.90;;;36.40;25.35
67373;BME280;54257;54.496;18.412;2022-07-21T11:19:37;99966.48;;;36.64;24.29
67373;BME280;54257;54.496;18.412;2022-07-21T11:22:06;99965.95;;;36.43;24.21
67373;BME280;54257;54.496;18.412;2022-07-21T11:24:33;99963.38;;;36.28;24.59
67373;BME280;54257;54.496;18.412;2022-07-21T11:29:29;99973.52;;;36.06;25.44
67373;BME280;54257;54.496;18.412;2022-07-21T11:31:57;99975.82;;;35.93;25.74
67373;BME280;54257;54.496;18.412;2022-07-21T11:34:25;99972.45;;;35.77;26.28
67373;BME280;54257;54.496;18.412;2022-07-21T11:37:01;99968.94;;;35.74;26.76
67373;BME280;54257;54.496;18.412;2022-07-21T11:39:28;99968.02;;;35.78;26.96
67373;BME280;54257;54.496;18.412;2022-07-21T11:42:08;99966.58;;;35.74;26.70
67373;BME280;54257;54.496;18.412;2022-07-21T11:44:36;99958.69;;;35.81;27.07
67373;BME280;54257;54.496;18.412;2022-07-21T11:47:04;99953.44;;;35.82;27.09
67373;BME280;54257;54.496;18.412;2022-07-21T11:49:33;99949.77;;;35.82;27.03
67373;BME280;54257;54.496;18.412;2022-07-21T11:52:02;99945.96;;;36.01;27.09
67373;BME280;54257;54.496;18.412;2022-07-21T11:54:33;99940.31;;;36.32;25.83
67373;BME280;54257;54.496;18.412;2022-07-21T11:57:05;99939.63;;;36.54;24.67
67373;BME280;54257;54.496;18.412;2022-07-21T11:59:34;99930.34;;;36.78;24.99
67373;BME280;54257;54.496;18.412;2022-07-21T12:02:20;99926.29;;;36.98;25.25
67373;BME280;54257;54.496;18.412;2022-07-21T12:04:55;99917.59;;;37.15;24.50
67373;BME280;54257;54.496;18.412;2022-07-21T12:10:07;99914.10;;;37.23;23.81
67373;BME280;54257;54.496;18.412;2022-07-21T12:12:44;99910.92;;;37.28;24.06
67373;BME280;54257;54.496;18.412;2022-07-21T12:15:32;99902.77;;;37.50;23.78
67373;BME280;54257;54.496;18.412;2022-07-21T12:18:08;99905.05;;;37.58;22.41
67373;BME280;54257;54.496;18.412;2022-07-21T12:20:44;99902.05;;;37.58;22.59
67373;BME280;54257;54.496;18.412;2022-07-21T12:23:25;99900.88;;;37.57;23.08
67373;BME280;54257;54.496;18.412;2022-07-21T12:25:55;99899.57;;;37.85;23.26
67373;BME280;54257;54.496;18.412;2022-07-21T12:28:45;99899.29;;;38.19;23.46
67373;BME280;54257;54.496;18.412;2022-07-21T12:31:19;99906.59;;;38.45;22.99
67373;BME280;54257;54.496;18.412;2022-07-21T12:33:49;99910.29;;;38.35;22.84
67373;BME280;54257;54.496;18.412;2022-07-21T12:36:19;99908.92;;;38.52;23.02
67373;BME280;54257;54.496;18.412;2022-07-21T12:38:48;99907.30;;;38.64;22.29
67373;BME280;54257;54.496;18.412;2022-07-21T12:41:17;99903.14;;;38.62;22.21
67373;BME280;54257;54.496;18.412;2022-07-21T12:43:56;99893.71;;;38.37;22.06
67373;BME280;54257;54.496;18.412;2022-07-21T12:46:29;99892.85;;;38.09;21.80
67373;BME280;54257;54.496;18.412;2022-07-21T12:49:04;99890.16;;;38.13;21.89
67373;BME280;54257;54.496;18.412;2022-07-21T12:51:32;99893.49;;;38.40;22.04
67373;BME280;54257;54.496;18.412;2022-07-21T12:53:59;99890.33;;;38.61;22.26
67373;BME280;54257;54.496;18.412;2022-07-21T12:56:31;99892.66;;;38.68;21.86
67373;BME280;54257;54.496;18.412;2022-07-21T12:58:59;99896.34;;;38.88;22.38
67373;BME280;54257;54.496;18.412;2022-07-21T13:01:28;99895.30;;;38.67;20.93
67373;BME280;54257;54.496;18.412;2022-07-21T13:03:55;99901.15;;;38.37;21.04
67373;BME280;54257;54.496;18.412;2022-07-21T13:06:22;99896.79;;;38.15;21.18
67373;BME280;54257;54.496;18.412;2022-07-21T13:08:50;99899.61;;;38.19;21.67
67373;BME280;54257;54.496;18.412;2022-07-21T13:11:19;99899.59;;;38.19;22.13